Time;durP1;ratioP1;P1;durP2;ratioP2;P2;SDS_P1;SDS_P2;PMS_P1;PMS_P2;Temp;Humidity;BMP_temperature;BMP_pressure;BME280_temperature;BME280_humidity;BME280_pressure;Samples;Min_cycle;Max_cycle;Signal;HPM_P1;HPM_P2
2022/06/03 00:01:06;;;;;;;2.70;2.50;;;;;;;10.33;100.00;101196.44;5966317;29;20042;-92
2022/06/03 00:04:53;;;;;;;2.45;2.25;;;;;;;10.29;100.00;101194.16;5970079;29;20069;-92
2022/06/03 00:08:17;;;;;;;2.58;2.28;;;;;;;10.26;100.00;101192.56;5973054;29;20093;-92
2022/06/03 00:11:27;;;;;;;3.17;2.42;;;;;;;10.18;100.00;101194.00;5958595;29;20058;-92
2022/06/03 00:14:56;;;;;;;3.70;2.67;;;;;;;10.15;100.00;101192.44;5972779;29;20146;-92
2022/06/03 00:18:41;;;;;;;3.83;2.38;;;;;;;10.18;100.00;101194.00;5971338;29;20345;-92
2022/06/03 00:22:20;;;;;;;2.58;2.38;;;;;;;10.14;100.00;101189.03;5973741;29;20070;-92
2022/06/03 00:25:59;;;;;;;3.00;2.58;;;;;;;10.04;100.00;101184.56;5973140;29;20054;-92
2022/06/03 00:29:22;;;;;;;3.00;2.58;;;;;;;10.02;100.00;101195.00;5971589;29;20091;-92
2022/06/03 00:33:02;;;;;;;2.95;2.63;;;;;;;9.97;100.00;101194.50;5955391;29;20068;-92
2022/06/03 00:36:29;;;;;;;2.70;2.50;;;;;;;9.99;100.00;101186.63;6053662;29;20596;-92
2022/06/03 00:39:48;;;;;;;2.92;2.72;;;;;;;9.97;100.00;101194.50;6048960;29;20139;-92
2022/06/03 00:43:09;;;;;;;3.30;2.63;;;;;;;9.92;100.00;101191.38;6064719;29;20123;-92
2022/06/03 00:46:21;;;;;;;;;;;;;;;9.88;100.00;101185.56;6051309;29;20604;-92
2022/06/03 00:49:49;;;;;;;2.72;2.53;;;;;;;9.80;100.00;101181.84;6056716;29;20377;-92
2022/06/03 00:53:06;;;;;;;3.63;2.83;;;;;;;9.78;100.00;101184.50;5967716;29;20141;-92
2022/06/03 00:56:26;;;;;;;3.45;3.05;;;;;;;9.74;100.00;101179.63;5971050;29;20058;-91
2022/06/03 00:59:47;;;;;;;2.97;2.77;;;;;;;9.72;100.00;101173.75;5966366;29;20050;-92
2022/06/03 01:03:11;;;;;;;2.72;2.53;;;;;;;9.67;100.00;101168.88;5972941;29;20099;-92
2022/06/03 01:06:50;;;;;;;4.68;2.90;;;;;;;9.62;100.00;101169.16;5977512;29;20050;-92
2022/06/03 01:10:24;;;;;;;3.28;2.92;;;;;;;9.63;100.00;101167.41;5971584;29;20062;-92
2022/06/03 01:13:45;;;;;;;4.95;2.80;;;;;;;9.67;100.00;101169.69;5970658;29;20054;-92
2022/06/03 01:17:19;;;;;;;3.28;2.97;;;;;;;9.66;100.00;101165.47;5972575;29;20581;-92
2022/06/03 01:21:00;;;;;;;3.45;2.63;;;;;;;9.61;100.00;101169.25;5955791;29;20066;-92
2022/06/03 01:24:35;;;;;;;3.42;3.03;;;;;;;9.57;100.00;101165.25;5969365;29;20050;-92
2022/06/03 01:27:45;;;;;;;2.95;2.75;;;;;;;9.54;100.00;101166.25;5970987;29;20050;-92
2022/06/03 01:31:06;;;;;;;;;;;;;;;9.44;100.00;101158.28;6046753;29;20056;-91
2022/06/03 01:34:32;;;;;;;3.70;2.70;;;;;;;9.42;100.00;101159.28;6034284;29;20483;-92
2022/06/03 01:37:55;;;;;;;3.40;3.03;;;;;;;9.35;100.00;101165.78;6051658;29;20119;-92
2022/06/03 01:41:49;;;;;;;3.58;3.28;;;;;;;9.36;100.00;101163.06;6055606;29;20048;-92
2022/06/03 01:45:04;;;;;;;3.20;2.90;;;;;;;9.33;100.00;101159.88;5959445;29;20086;-92
2022/06/03 01:48:19;;;;;;;3.78;3.17;;;;;;;9.30;100.00;101160.06;5956074;29;20102;-92
2022/06/03 01:51:28;;;;;;;3.65;2.80;;;;;;;9.30;100.00;101152.31;5956961;29;20424;-91
2022/06/03 01:54:42;;;;;;;4.03;2.92;;;;;;;9.21;100.00;101154.53;5958157;29;20047;-92
2022/06/03 01:58:09;;;;;;;4.10;3.08;;;;;;;9.18;100.00;101152.16;5963909;29;20054;-91
2022/06/03 02:01:52;;;;;;;4.30;3.60;;;;;;;9.17;100.00;101152.28;5948223;29;20054;-92
2022/06/03 02:05:07;;;;;;;3.30;3.00;;;;;;;9.16;100.00;101154.00;5898539;30;20063;-92
2022/06/03 02:08:18;;;;;;;3.30;3.00;;;;;;;9.14;100.00;101153.28;5902428;30;20091;-92
2022/06/03 02:11:40;;;;;;;3.17;2.85;;;;;;;9.10;100.00;101153.59;5899184;30;20132;-92
2022/06/03 02:14:42;;;;;;;4.82;3.20;;;;;;;9.02;100.00;101149.72;5894820;30;20637;-92
2022/06/03 02:18:09;;;;;;;3.65;3.17;;;;;;;8.97;100.00;101143.19;5898449;30;20703;-92
2022/06/03 02:21:26;;;;;;;4.15;3.17;;;;;;;8.93;100.00;101155.44;5944103;29;20080;-92
2022/06/03 02:24:56;;;;;;;3.30;3.00;;;;;;;8.88;100.00;101151.50;5940597;29;20066;-92
2022/06/03 02:28:17;;;;;;;3.78;3.05;;;;;;;8.79;100.00;101156.31;5951046;29;20057;-92
2022/06/03 02:31:58;;;;;;;3.50;3.20;;;;;;;8.65;100.00;101161.47;5966489;29;20533;-92
2022/06/03 02:35:23;;;;;;;3.28;2.97;;;;;;;8.71;100.00;101161.09;5961498;29;20058;-92
2022/06/03 02:39:03;;;;;;;3.05;2.75;;;;;;;8.65;100.00;101153.75;5983868;29;20095;-92
2022/06/03 02:42:43;;;;;;;3.30;3.00;;;;;;;8.55;100.00;101161.22;6058985;29;20499;-92
2022/06/03 02:46:42;;;;;;;3.95;3.28;;;;;;;8.54;100.00;101158.72;6052640;29;20044;-92
2022/06/03 02:50:16;;;;;;;4.22;3.83;;;;;;;8.48;100.00;101156.50;6050748;29;20154;-92
2022/06/03 02:54:00;;;;;;;3.63;3.33;;;;;;;8.44;100.00;101160.19;6033751;29;20057;-92
2022/06/03 02:57:08;;;;;;;3.72;3.42;;;;;;;8.43;100.00;101145.63;5971848;29;20054;-92
2022/06/03 03:00:16;;;;;;;4.07;3.70;;;;;;;8.46;100.00;101148.03;5973873;29;20054;-92
2022/06/03 03:03:47;;;;;;;4.13;3.72;;;;;;;8.40;100.00;101150.06;5960523;29;20700;-92
2022/06/03 03:07:16;;;;;;;4.20;3.80;;;;;;;8.38;100.00;101151.03;5976278;29;20061;-92
2022/06/03 03:10:58;;;;;;;3.95;3.38;;;;;;;8.44;100.00;101160.19;5955713;29;20051;-92
2022/06/03 03:14:46;;;;;;;4.43;3.67;;;;;;;8.45;100.00;101154.09;5968492;29;20082;-92
2022/06/03 03:18:26;;;;;;;3.85;3.42;;;;;;;8.39;100.00;101150.97;5879926;30;20301;-92
2022/06/03 03:22:09;;;;;;;5.40;4.15;;;;;;;8.38;100.00;101144.13;5881275;30;20069;-92
2022/06/03 03:25:29;;;;;;;5.57;4.32;;;;;;;8.39;100.00;101145.78;5805144;30;20702;-92
2022/06/03 03:28:43;;;;;;;5.13;4.60;;;;;;;8.39;100.00;101144.94;5807808;30;20135;-92
2022/06/03 03:32:15;;;;;;;5.10;4.45;;;;;;;8.42;100.00;101160.25;5872508;30;20056;-92
2022/06/03 03:36:13;;;;;;;5.32;4.07;;;;;;;8.44;100.00;101149.88;5890111;30;20834;-92
2022/06/03 03:39:24;;;;;;;5.72;4.50;;;;;;;8.45;100.00;101152.38;5821708;30;20275;-92
2022/06/03 03:42:45;;;;;;;5.05;4.35;;;;;;;8.49;100.00;101150.41;5825348;30;20073;-92
2022/06/03 03:46:28;;;;;;;4.68;4.28;;;;;;;8.55;100.00;101158.63;5816192;30;20627;-91
2022/06/03 03:50:07;;;;;;;4.78;4.28;;;;;;;8.56;100.00;101160.28;5825903;30;20140;-92
2022/06/03 03:53:46;;;;;;;6.30;4.47;;;;;;;8.57;100.00;101164.53;5864572;30;20072;-92
2022/06/03 03:56:59;;;;;;;4.63;4.00;;;;;;;8.53;100.00;101162.22;5899296;30;20585;-92
2022/06/03 04:00:38;;;;;;;4.93;4.45;;;;;;;8.60;100.00;101161.75;5898387;30;20515;-92
2022/06/03 04:04:11;;;;;;;5.45;4.38;;;;;;;8.60;100.00;101156.59;5954889;29;20085;-92
2022/06/03 04:07:42;;;;;;;5.13;4.03;;;;;;;8.69;100.00;101151.78;5961897;29;20062;-91
2022/06/03 04:11:08;;;;;;;5.13;4.63;;;;;;;8.70;100.00;101143.13;5843270;30;20117;-92
2022/06/03 04:14:48;;;;;;;5.57;4.82;;;;;;;8.71;100.00;101145.59;5874834;29;20196;-91
2022/06/03 04:18:05;;;;;;;5.03;4.40;;;;;;;8.70;100.00;101159.44;5932123;29;20092;-92
2022/06/03 04:21:16;;;;;;;4.95;4.45;;;;;;;8.79;100.00;101158.91;5943481;29;20146;-91
2022/06/03 04:24:18;;;;;;;;;;;;;;;8.83;100.00;101152.59;5953661;29;20058;-92
2022/06/03 04:27:53;;;;;;;6.30;4.47;;;;;;;8.89;100.00;101145.41;5936825;29;20429;-92
2022/06/03 04:31:34;;;;;;;4.85;4.28;;;;;;;8.94;100.00;101153.69;5938744;29;20121;-92
2022/06/03 04:34:57;;;;;;;4.30;3.90;;;;;;;8.95;100.00;101155.38;5950912;29;20063;-91
2022/06/03 04:38:21;;;;;;;6.43;4.82;;;;;;;9.02;100.00;101149.72;5925937;30;20066;-91
2022/06/03 04:41:38;;;;;;;6.05;5.40;;;;;;;9.12;100.00;101149.97;5951717;29;20450;-91
2022/06/03 04:45:02;;;;;;;7.85;5.68;;;;;;;9.19;100.00;101138.34;5952063;29;20042;-91
2022/06/03 04:48:36;;;;;;;7.18;5.60;;;;;;;9.25;100.00;101139.69;6039147;29;20064;-90
2022/06/03 04:52:12;;;;;;;9.82;6.10;;;;;;;9.34;100.00;101135.69;5954760;29;20646;-90
2022/06/03 04:55:51;;;;;;;7.90;6.00;;;;;;;9.42;100.00;101147.19;5951892;29;20078;-90
2022/06/03 04:59:31;;;;;;;7.30;6.15;;;;;;;9.48;100.00;101151.13;5951100;29;20135;-91
2022/06/03 05:03:32;;;;;;;7.53;6.72;;;;;;;9.51;100.00;101150.09;5952146;29;20062;-90
2022/06/03 05:07:13;;;;;;;7.25;6.40;;;;;;;9.58;100.00;101151.38;5885593;30;20563;-90
2022/06/03 05:10:27;;;;;;;;;;;;;;;9.62;100.00;101140.75;5881234;30;20631;-90
2022/06/03 05:14:07;;;;;;;7.82;5.90;;;;;;;9.71;100.00;101147.06;5880221;30;19936;-90
2022/06/03 05:17:46;;;;;;;8.48;6.28;;;;;;;9.76;100.00;101133.81;5874048;30;20081;-90
2022/06/03 05:21:27;;;;;;;7.00;6.28;;;;;;;9.81;100.00;101135.22;5873472;30;20535;-90
2022/06/03 05:24:50;;;;;;;8.55;6.07;;;;;;;9.87;100.00;101131.38;5885959;30;20182;-91
2022/06/03 05:28:10;;;;;;;6.85;6.15;;;;;;;9.93;100.00;101126.59;5950381;29;20062;-90
2022/06/03 05:31:30;;;;;;;8.77;6.90;;;;;;;9.96;100.00;101129.91;5981277;29;20075;-90
2022/06/03 05:34:50;;;;;;;7.78;6.28;;;;;;;10.03;100.00;101137.16;5982505;29;20532;-90
2022/06/03 05:38:06;;;;;;;7.07;6.38;;;;;;;10.11;100.00;101129.75;5994857;29;20077;-90
2022/06/03 05:44:54;;;;;;;8.13;6.65;;;;;;;10.24;100.00;101128.91;6059997;29;20075;-90
2022/06/03 05:48:30;;;;;;;8.95;7.38;;;;;;;10.31;100.00;101140.50;6060223;29;20045;-90
2022/06/03 05:51:56;;;;;;;10.50;7.43;;;;;;;10.41;100.00;101133.81;6050299;29;20574;-90
2022/06/03 05:55:10;;;;;;;8.35;7.03;;;;;;;10.48;100.00;101127.28;6063988;29;20058;-90
2022/06/03 05:58:26;;;;;;;9.30;7.47;;;;;;;10.56;100.00;101134.50;6059107;29;20550;-90
2022/06/03 06:02:00;;;;;;;9.63;7.80;;;;;;;10.65;100.00;101133.03;6071375;29;20128;-90
2022/06/03 06:05:30;;;;;;;9.93;8.02;;;;;;;10.74;100.00;101137.56;6051515;29;20056;-90
2022/06/03 06:08:54;;;;;;;9.27;7.60;;;;;;;10.84;100.00;101150.72;6046727;29;20631;-90
2022/06/03 06:12:19;;;;;;;10.10;8.25;;;;;;;10.96;100.00;101153.25;6072517;29;20284;-90
2022/06/03 06:15:30;;;;;;;9.10;7.95;;;;;;;11.08;100.00;101148.13;6054748;29;20494;-90
2022/06/03 06:19:10;;;;;;;9.68;8.45;;;;;;;11.20;100.00;101142.06;6067668;29;20434;-90
2022/06/03 06:22:37;;;;;;;10.57;8.60;;;;;;;11.31;100.00;101123.19;6051454;29;20055;-90
2022/06/03 06:26:04;;;;;;;10.45;8.05;;;;;;;11.41;100.00;101124.16;6071444;29;20044;-90
2022/06/03 06:29:34;;;;;;;14.27;7.65;;;;;;;11.54;100.00;101117.13;5976786;29;20521;-90
2022/06/03 06:32:45;;;;;;;8.60;7.72;;;;;;;11.64;100.00;101125.88;5976995;29;20169;-90
2022/06/03 06:36:05;;;;;;;;;;;;;;;11.71;100.00;101115.06;5981511;29;20524;-90
2022/06/03 06:39:26;;;;;;;5.97;5.40;;;;;;;11.84;100.00;101119.22;5961917;29;20513;-90
2022/06/03 06:42:59;;;;;;;6.82;5.65;;;;;;;11.99;100.00;101119.03;5976615;29;20051;-90
2022/06/03 06:46:33;;;;;;;7.80;5.97;;;;;;;12.14;100.00;101115.28;5965282;29;20087;-90
2022/06/03 06:49:49;;;;;;;7.72;5.68;;;;;;;12.30;100.00;101117.56;5960847;29;20224;-91
2022/06/03 06:52:54;;;;;;;10.77;5.65;;;;;;;12.37;100.00;101116.13;5976758;29;20600;-90
2022/06/03 06:56:20;;;;;;;9.50;5.13;;;;;;;12.46;100.00;101115.41;5977019;29;20062;-91
2022/06/03 07:00:07;;;;;;;9.07;5.53;;;;;;;12.62;100.00;101114.22;5976671;29;20069;-90
2022/06/03 07:03:17;;;;;;;10.50;6.18;;;;;;;12.77;100.00;101115.63;5908755;30;20071;-90
2022/06/03 07:06:37;;;;;;;12.05;5.95;;;;;;;12.93;100.00;101112.63;5967811;29;20614;-90
2022/06/03 07:10:00;;;;;;;12.43;6.28;;;;;;;13.05;100.00;101121.22;5997566;29;20056;-90
2022/06/03 07:13:24;;;;;;;15.23;7.05;;;;;;;13.28;100.00;101111.59;5996833;29;20061;-90
2022/06/03 07:20:22;;;;;;;15.30;7.40;;;;;;;13.52;100.00;101104.41;5998962;29;20135;-90
2022/06/03 07:24:00;;;;;;;16.40;6.78;;;;;;;13.73;100.00;101095.78;5996631;29;20516;-90
2022/06/03 07:27:13;;;;;;;16.63;6.97;;;;;;;13.81;100.00;101093.34;5997361;29;20062;-90
2022/06/03 07:30:33;;;;;;;14.57;6.70;;;;;;;13.93;100.00;101096.72;5998015;29;20056;-90
2022/06/03 07:33:46;;;;;;;11.45;5.88;;;;;;;14.06;100.00;101093.88;5991637;29;20526;-90
2022/06/03 07:37:13;;;;;;;8.20;4.53;;;;;;;14.25;100.00;101095.75;5996337;29;20519;-90
2022/06/03 07:40:47;;;;;;;7.90;4.75;;;;;;;14.43;100.00;101092.41;6034547;29;20554;-90
2022/06/03 07:43:54;;;;;;;9.05;4.53;;;;;;;14.51;100.00;101091.75;6061199;29;20076;-90
2022/06/03 07:47:02;;;;;;;7.82;3.30;;;;;;;14.66;98.26;101089.63;6060555;29;20045;-90
2022/06/03 07:50:10;;;;;;;6.07;4.00;;;;;;;14.81;97.93;101082.25;6070950;29;20049;-90
2022/06/03 07:53:36;;;;;;;4.20;3.45;;;;;;;14.95;96.52;101083.63;6054775;29;20120;-90
2022/06/03 07:56:39;;;;;;;4.22;3.70;;;;;;;15.07;93.57;101077.31;6070193;29;20044;-90
2022/06/03 07:59:41;;;;;;;5.65;3.85;;;;;;;15.18;93.83;101081.56;6053131;29;20088;-90
2022/06/03 08:02:43;;;;;;;5.22;3.70;;;;;;;15.29;93.41;101077.03;6057553;29;20036;-90
2022/06/03 08:05:48;;;;;;;5.32;4.10;;;;;;;15.40;91.67;101065.66;6054163;29;20521;-90
2022/06/03 08:12:25;;;;;;;8.82;3.80;;;;;;;15.59;92.88;101067.41;6059921;29;20128;-90
2022/06/03 08:15:34;;;;;;;5.28;4.78;;;;;;;15.74;90.68;101069.59;6060130;29;20045;-90
2022/06/03 08:18:42;;;;;;;4.45;4.05;;;;;;;15.89;91.25;101065.56;6045651;29;20048;-90
2022/06/03 08:21:52;;;;;;;6.13;3.90;;;;;;;15.99;90.18;101068.16;6068532;29;20049;-90
2022/06/03 08:25:00;;;;;;;4.70;3.58;;;;;;;16.08;90.13;101072.50;6030097;29;20293;-89
2022/06/03 08:28:03;;;;;;;4.13;3.10;;;;;;;16.16;89.14;101067.38;6052810;29;20051;-90
2022/06/03 08:31:06;;;;;;;4.75;3.78;;;;;;;16.27;89.57;101068.97;6039058;29;20133;-89
2022/06/03 08:34:16;;;;;;;4.90;3.25;;;;;;;16.40;87.60;101068.63;6065362;29;20091;-90
2022/06/03 08:37:46;;;;;;;6.75;3.72;;;;;;;16.49;85.25;101065.97;6054718;29;20135;-89
2022/06/03 08:41:23;;;;;;;3.65;3.35;;;;;;;16.57;84.18;101068.69;6063477;29;20514;-89
2022/06/03 08:44:52;;;;;;;3.50;3.20;;;;;;;16.68;83.80;101059.81;6052890;29;20124;-89
2022/06/03 08:47:57;;;;;;;5.13;3.83;;;;;;;16.82;83.55;101065.53;6069650;29;20596;-90
2022/06/03 08:51:04;;;;;;;3.22;2.90;;;;;;;16.91;81.68;101062.84;6070023;29;20060;-89
2022/06/03 08:54:26;;;;;;;3.63;2.83;;;;;;;17.13;81.19;101058.13;6041806;29;20123;-89
2022/06/03 08:57:45;;;;;;;5.32;3.10;;;;;;;17.31;79.50;101048.44;6052581;29;20085;-90
2022/06/03 09:01:29;;;;;;;3.35;2.42;;;;;;;17.44;78.37;101048.88;6064867;29;20742;-89
2022/06/03 09:04:56;;;;;;;3.40;2.92;;;;;;;17.64;77.53;101048.69;5999166;29;20547;-89
2022/06/03 09:08:10;;;;;;;3.67;2.92;;;;;;;17.76;74.95;101044.00;5985845;29;20669;-90
2022/06/03 09:11:20;;;;;;;3.30;2.95;;;;;;;17.88;74.46;101047.22;5979872;29;20049;-89
2022/06/03 09:14:26;;;;;;;2.50;2.30;;;;;;;17.94;71.80;101033.50;5987595;29;20063;-89
2022/06/03 09:17:42;;;;;;;2.70;2.50;;;;;;;18.04;74.23;101037.63;5981947;29;20068;-89
2022/06/03 09:20:47;;;;;;;2.65;2.42;;;;;;;18.17;67.95;101041.63;5995625;29;20065;-89
2022/06/03 09:24:12;;;;;;;3.00;2.80;;;;;;;18.28;67.96;101039.53;5997040;29;20129;-89
2022/06/03 09:27:16;;;;;;;3.58;2.55;;;;;;;18.32;70.87;101028.72;5986339;29;20647;-89
2022/06/03 09:30:31;;;;;;;3.20;2.20;;;;;;;18.45;70.29;101034.31;5976685;29;20060;-89
2022/06/03 09:33:35;;;;;;;2.45;2.25;;;;;;;18.61;67.35;101039.63;5980557;29;20731;-89
2022/06/03 09:36:38;;;;;;;3.22;2.88;;;;;;;18.69;67.85;101030.94;5998325;29;20092;-89
2022/06/03 09:39:44;;;;;;;2.92;2.53;;;;;;;18.73;68.78;101032.22;5997963;29;20038;-90
2022/06/03 09:43:00;;;;;;;3.00;2.00;;;;;;;18.80;70.53;101032.44;6065903;29;20403;-89
2022/06/03 09:46:05;;;;;;;2.95;2.42;;;;;;;18.88;67.07;101037.69;6059617;29;20555;-89
2022/06/03 09:49:09;;;;;;;2.50;2.30;;;;;;;19.01;66.19;101024.91;6057700;29;20036;-90
2022/06/03 09:52:21;;;;;;;2.60;2.40;;;;;;;19.13;65.50;101020.97;6048341;29;20128;-90
2022/06/03 09:55:38;;;;;;;3.30;2.22;;;;;;;19.26;63.89;101027.53;6064558;29;20139;-90
2022/06/03 09:58:42;;;;;;;2.58;2.22;;;;;;;19.43;63.18;101031.78;6064087;29;20060;-90
2022/06/03 10:01:44;;;;;;;2.22;2.03;;;;;;;19.53;65.24;101026.34;6061026;29;20530;-89
2022/06/03 10:04:46;;;;;;;4.35;3.38;;;;;;;19.58;59.70;101009.09;6063519;29;20051;-89
2022/06/03 10:07:59;;;;;;;4.25;2.60;;;;;;;19.72;63.24;101012.03;6067344;29;20044;-90
2022/06/03 10:14:21;;;;;;;;;;;;;;;19.92;60.42;101007.19;6043073;29;20123;-89
2022/06/03 10:17:23;;;;;;;3.40;2.50;;;;;;;19.88;58.12;101004.09;6032121;29;19958;-90
2022/06/03 10:20:44;;;;;;;2.60;2.40;;;;;;;19.97;57.91;101005.72;6064798;29;20049;-90
2022/06/03 10:23:52;;;;;;;2.50;2.30;;;;;;;20.11;58.90;101001.53;6067489;29;20041;-90
2022/06/03 10:27:00;;;;;;;3.25;1.92;;;;;;;20.25;54.77;101004.41;6051181;29;20078;-90
2022/06/03 10:30:05;;;;;;;2.30;2.10;;;;;;;20.41;56.21;101002.50;6066985;29;20491;-90
2022/06/03 10:33:21;;;;;;;4.65;2.40;;;;;;;20.62;53.98;101003.72;6048444;29;20056;-90
2022/06/03 10:36:56;;;;;;;1.80;1.70;;;;;;;20.71;57.39;100992.13;6071255;29;20056;-89
2022/06/03 10:39:58;;;;;;;2.95;1.98;;;;;;;20.91;57.04;100989.03;5952782;29;20073;-88
2022/06/03 10:43:03;;;;;;;4.45;2.00;;;;;;;21.05;54.66;100975.91;5974090;29;20066;-89
2022/06/03 10:46:19;;;;;;;2.72;2.03;;;;;;;21.17;54.84;100980.75;5962728;29;20059;-89
2022/06/03 10:49:23;;;;;;;2.35;2.10;;;;;;;21.23;53.81;100980.81;5956239;29;20553;-89
2022/06/03 11:02:37;;;;;;;2.60;2.00;;;;;;;21.45;55.78;100965.16;5975642;29;20050;-89
2022/06/03 11:05:40;;;;;;;2.33;2.13;;;;;;;21.56;53.25;100969.97;5973823;29;20062;-89
2022/06/03 11:08:59;;;;;;;2.03;1.90;;;;;;;21.61;52.96;100962.31;5977089;29;20062;-89
2022/06/03 11:12:05;;;;;;;3.72;2.45;;;;;;;21.83;48.91;100957.13;5973127;29;20050;-89
2022/06/03 11:15:47;;;;;;;1.85;1.67;;;;;;;21.88;48.58;100947.66;5986327;29;20120;-88
2022/06/03 11:18:50;;;;;;;3.88;2.00;;;;;;;22.00;50.47;100948.00;5972292;29;20058;-89
2022/06/03 11:22:16;;;;;;;3.30;1.80;;;;;;;22.12;51.08;100940.44;5971813;29;20586;-88
2022/06/03 11:25:25;;;;;;;2.38;1.95;;;;;;;22.25;50.00;100937.13;5963659;29;20061;-89
2022/06/03 11:28:57;;;;;;;1.85;1.70;;;;;;;22.31;47.39;100933.72;5975650;29;20110;-88
2022/06/03 11:32:02;;;;;;;1.85;1.70;;;;;;;22.43;48.20;100932.22;5966419;29;20059;-88
2022/06/03 11:35:18;;;;;;;4.32;2.03;;;;;;;22.55;49.81;100925.44;5976676;29;20853;-89
2022/06/03 11:38:29;;;;;;;2.80;1.90;;;;;;;22.67;48.30;100917.00;5972043;29;20610;-89
2022/06/03 11:41:35;;;;;;;2.10;1.88;;;;;;;22.73;47.72;100917.06;5973822;29;20069;-89
2022/06/03 11:45:01;;;;;;;2.33;1.90;;;;;;;22.94;50.07;100910.91;5965162;29;20053;-88
2022/06/03 11:48:17;;;;;;;2.13;1.98;;;;;;;23.16;47.61;100908.25;5960165;29;20198;-88
2022/06/03 11:51:20;;;;;;;1.85;1.70;;;;;;;23.37;45.84;100907.31;6066690;29;20041;-89
2022/06/03 11:54:25;;;;;;;1.73;1.63;;;;;;;23.55;42.65;100907.63;6062910;29;20531;-88
2022/06/03 11:57:28;;;;;;;3.92;1.60;;;;;;;23.68;45.54;100898.91;6066161;29;20052;-88
2022/06/03 12:00:37;;;;;;;1.58;1.48;;;;;;;23.87;44.82;100905.28;6066155;29;20048;-89
2022/06/03 12:03:43;;;;;;;3.35;1.80;;;;;;;24.05;44.03;100886.25;6074331;29;20068;-88
2022/06/03 12:07:04;;;;;;;1.70;1.60;;;;;;;24.22;42.62;100886.63;6069690;29;20052;-88
2022/06/03 12:10:25;;;;;;;1.67;1.58;;;;;;;24.43;42.41;100888.28;6050028;29;20040;-88
2022/06/03 12:13:31;;;;;;;2.13;1.90;;;;;;;24.47;41.88;100898.31;6065219;29;20045;-89
2022/06/03 12:16:53;;;;;;;2.05;1.88;;;;;;;24.54;43.30;100879.75;6065831;29;20519;-89
2022/06/03 12:19:55;;;;;;;2.15;1.90;;;;;;;24.62;43.73;100873.44;6058623;29;20040;-88
2022/06/03 12:23:18;;;;;;;1.98;1.80;;;;;;;24.85;41.25;100875.66;6066895;29;20711;-89
2022/06/03 12:26:31;;;;;;;2.78;1.83;;;;;;;25.19;43.62;100871.91;5972823;29;20760;-89
2022/06/03 12:29:41;;;;;;;1.90;1.80;;;;;;;25.49;42.11;100877.53;5974471;29;20190;-88
2022/06/03 12:33:03;;;;;;;2.33;1.88;;;;;;;25.63;40.81;100877.44;5958735;29;20558;-89
2022/06/03 12:36:08;;;;;;;1.90;1.75;;;;;;;25.29;38.88;100869.66;5975368;29;20054;-89
2022/06/03 12:39:19;;;;;;;1.80;1.70;;;;;;;24.83;42.01;100852.03;5973759;29;20058;-89
2022/06/03 12:42:28;;;;;;;1.88;1.77;;;;;;;24.86;42.67;100854.25;5962033;29;20107;-89
2022/06/03 12:45:32;;;;;;;2.58;1.70;;;;;;;25.50;41.78;100851.81;5956070;29;20054;-89
2022/06/03 12:48:51;;;;;;;6.78;1.80;;;;;;;26.25;40.48;100851.94;5936200;29;20058;-89
2022/06/03 12:52:01;;;;;;;4.25;1.98;;;;;;;26.89;43.59;100854.47;5970607;29;20061;-88
2022/06/03 12:55:13;;;;;;;3.38;1.90;;;;;;;27.39;38.72;100851.63;5959603;29;20141;-89
2022/06/03 12:58:47;;;;;;;1.98;1.73;;;;;;;27.74;37.85;100856.28;5970664;29;20086;-88
2022/06/03 13:02:14;;;;;;;3.65;1.85;;;;;;;27.81;39.76;100851.66;5968352;29;20354;-89
2022/06/03 13:05:38;;;;;;;2.00;1.90;;;;;;;27.61;38.12;100839.47;6052651;29;20037;-89
2022/06/03 13:12:16;;;;;;;2.20;1.73;;;;;;;27.10;39.72;100840.69;6061642;29;20118;-89
2022/06/03 13:15:21;;;;;;;1.88;1.77;;;;;;;26.61;41.02;100827.34;6068266;29;20037;-89
2022/06/03 13:18:57;;;;;;;2.20;1.90;;;;;;;26.21;38.84;100818.94;6064820;29;20041;-88
2022/06/03 13:22:07;;;;;;;2.38;2.17;;;;;;;25.76;42.26;100808.41;5934949;29;20235;-89
2022/06/03 13:25:31;;;;;;;2.08;1.88;;;;;;;25.44;43.51;100799.63;5950154;29;20047;-89
2022/06/03 13:28:37;;;;;;;4.25;2.10;;;;;;;25.19;40.91;100797.72;5947112;29;20091;-89
2022/06/03 13:31:40;;;;;;;2.13;2.00;;;;;;;24.99;44.86;100799.63;5948293;29;21281;-89
2022/06/03 13:34:43;;;;;;;2.90;2.17;;;;;;;25.30;44.81;100805.00;5950326;29;20058;-88
2022/06/03 13:38:02;;;;;;;4.03;2.20;;;;;;;25.87;41.94;100810.41;5948164;29;20054;-88
2022/06/03 13:45:01;;;;;;;2.15;1.98;;;;;;;25.73;39.35;100812.31;5947167;29;20059;-87
2022/06/03 13:48:11;;;;;;;2.05;1.90;;;;;;;25.62;40.50;100805.06;5947919;29;20051;-88
2022/06/03 13:51:52;;;;;;;2.50;2.30;;;;;;;25.68;41.72;100798.88;5947944;29;20570;-88
2022/06/03 13:55:34;;;;;;;2.33;2.13;;;;;;;26.30;41.54;100807.00;5945725;29;20050;-89
2022/06/03 13:58:40;;;;;;;3.08;2.42;;;;;;;26.83;39.49;100810.97;5971413;29;20121;-88
2022/06/03 14:01:48;;;;;;;2.88;2.10;;;;;;;27.38;37.96;100804.78;5971624;29;20070;-89
2022/06/03 14:05:02;;;;;;;2.90;2.30;;;;;;;27.87;38.49;100794.91;5998521;29;20046;-89
2022/06/03 14:08:27;;;;;;;2.40;2.13;;;;;;;28.75;36.70;100793.97;5992517;29;20623;-89
2022/06/03 14:11:35;;;;;;;3.17;2.70;;;;;;;29.28;37.31;100793.94;5986780;29;20072;-89
2022/06/03 14:15:01;;;;;;;3.50;2.00;;;;;;;29.84;34.61;100793.06;5994473;29;20054;-89
2022/06/03 14:18:04;;;;;;;2.13;1.92;;;;;;;30.35;33.81;100795.72;5990150;29;20396;-89
2022/06/03 14:21:07;;;;;;;2.10;1.90;;;;;;;30.09;34.04;100797.19;5998657;29;20062;-89
2022/06/03 14:24:34;;;;;;;2.05;1.95;;;;;;;29.78;35.72;100795.91;5995074;29;20097;-89
2022/06/03 14:28:20;;;;;;;2.38;1.95;;;;;;;29.09;34.05;100807.47;5986887;29;20100;-88
2022/06/03 14:31:46;;;;;;;2.30;1.90;;;;;;;28.40;34.86;100793.16;5993616;29;20197;-88
2022/06/03 14:35:02;;;;;;;4.15;2.33;;;;;;;27.62;37.79;100792.38;6022783;29;20104;-89
2022/06/03 14:38:25;;;;;;;2.75;2.05;;;;;;;27.22;38.09;100804.38;6069497;29;20045;-89
2022/06/03 14:41:32;;;;;;;2.03;1.90;;;;;;;27.89;40.70;100800.81;6066880;29;20127;-89
2022/06/03 14:44:36;;;;;;;2.20;2.00;;;;;;;28.31;36.93;100798.06;6070393;29;20047;-89
2022/06/03 14:47:45;;;;;;;2.03;1.85;;;;;;;27.78;37.09;100799.72;6067995;29;20084;-89
2022/06/03 14:51:04;;;;;;;2.00;1.73;;;;;;;27.46;38.75;100799.19;6057367;29;20047;-89
2022/06/03 14:54:14;;;;;;;3.70;1.97;;;;;;;27.42;40.65;100801.47;6052214;29;20079;-89
2022/06/03 14:57:52;;;;;;;2.75;2.05;;;;;;;27.02;39.12;100796.66;6068604;29;20051;-89
2022/06/03 15:01:13;;;;;;;6.90;2.38;;;;;;;26.67;40.17;100791.13;5969295;29;20089;-89
2022/06/03 15:04:32;;;;;;;2.78;2.30;;;;;;;26.56;39.16;100792.69;5960572;29;20513;-89
2022/06/03 15:07:36;;;;;;;3.38;2.20;;;;;;;27.51;41.29;100782.56;5959923;29;20061;-89
2022/06/03 15:10:49;;;;;;;5.38;1.85;;;;;;;28.40;38.59;100783.34;5965945;29;20071;-89
2022/06/03 15:13:52;;;;;;;2.15;1.70;;;;;;;28.91;37.47;100786.28;5956454;29;20078;-89
2022/06/03 15:16:58;;;;;;;2.08;1.60;;;;;;;29.19;37.04;100783.69;5976137;29;20067;-89
2022/06/03 15:20:04;;;;;;;2.65;2.45;;;;;;;29.60;35.32;100783.56;5969301;29;20050;-89
2022/06/03 15:23:07;;;;;;;1.98;1.88;;;;;;;29.44;37.75;100784.34;5969403;29;20051;-89
2022/06/03 15:26:16;;;;;;;1.95;1.73;;;;;;;29.80;36.95;100775.13;5959177;29;20143;-90
2022/06/03 15:29:31;;;;;;;3.50;2.10;;;;;;;30.16;35.25;100768.47;5951056;29;20067;-90
2022/06/03 15:32:39;;;;;;;1.50;1.40;;;;;;;30.35;33.54;100769.00;5975584;29;20045;-91
2022/06/03 15:35:43;;;;;;;2.13;1.88;;;;;;;29.85;36.39;100764.53;5990358;29;20045;-89
2022/06/03 15:38:48;;;;;;;3.63;2.28;;;;;;;29.09;34.73;100762.16;6038017;29;20055;-89
2022/06/03 15:41:59;;;;;;;1.80;1.70;;;;;;;28.74;37.50;100764.88;6050221;29;20553;-89
2022/06/03 15:45:04;;;;;;;2.58;2.00;;;;;;;28.25;37.35;100754.53;6069541;29;20542;-89
2022/06/03 15:48:16;;;;;;;2.50;2.08;;;;;;;28.44;34.87;100754.38;6064510;29;20053;-90
2022/06/03 15:51:20;;;;;;;2.70;1.83;;;;;;;28.73;37.04;100755.28;6065687;29;20072;-89
2022/06/03 15:54:29;;;;;;;1.92;1.80;;;;;;;29.22;37.30;100755.72;6070080;29;20107;-90
2022/06/03 15:57:45;;;;;;;2.20;2.00;;;;;;;29.09;36.42;100753.31;6068430;29;20076;-89